Time;durP1;ratioP1;P1;durP2;ratioP2;P2;SDS_P1;SDS_P2;PMS_P1;PMS_P2;Temp;Humidity;BMP_temperature;BMP_pressure;BME280_temperature;BME280_humidity;BME280_pressure;Samples;Min_cycle;Max_cycle;Signal;HPM_P1;HPM_P2
2023/05/28 00:00:26;;;;;;;19.52;7.03;;;12.40;99.90;;;;;;5041162;28;20095;-60
2023/05/28 00:02:53;;;;;;;20.40;6.80;;;12.30;99.90;;;;;;4683406;28;10001121;-60
2023/05/28 00:05:20;;;;;;;19.42;7.18;;;12.40;99.90;;;;;;5030370;28;20049;-60
2023/05/28 00:07:47;;;;;;;14.10;6.50;;;12.40;99.90;;;;;;5043528;28;20095;-60
2023/05/28 00:10:13;;;;;;;16.75;6.80;;;12.40;99.90;;;;;;5029997;28;20107;-60
2023/05/28 00:12:40;;;;;;;17.63;6.88;;;12.40;99.90;;;;;;5043934;28;20049;-60
2023/05/28 00:15:07;;;;;;;16.05;5.97;;;12.30;99.90;;;;;;5031329;28;20134;-60
2023/05/28 00:17:34;;;;;;;18.48;5.75;;;12.20;99.90;;;;;;5042746;28;20492;-60
2023/05/28 00:20:01;;;;;;;14.13;5.53;;;12.00;99.90;;;;;;5034584;28;20064;-60
2023/05/28 00:22:29;;;;;;;17.08;5.90;;;11.90;99.90;;;;;;5045926;28;20041;-60
2023/05/28 00:24:55;;;;;;;16.63;6.10;;;11.80;99.90;;;;;;5039433;28;20053;-60
2023/05/28 00:27:25;;;;;;;14.55;5.93;;;11.80;99.90;;;;;;5044457;28;20052;-60
2023/05/28 00:29:52;;;;;;;15.60;6.22;;;11.80;99.90;;;;;;5041473;28;20520;-60
2023/05/28 00:32:18;;;;;;;16.67;6.30;;;11.80;99.90;;;;;;5039748;28;20084;-60
2023/05/28 00:34:45;;;;;;;13.43;6.45;;;11.90;99.90;;;;;;5042320;28;20049;-60
2023/05/28 00:37:12;;;;;;;13.40;6.10;;;12.00;99.90;;;;;;5043086;28;20504;-60
2023/05/28 00:39:40;;;;;;;14.68;5.97;;;12.00;99.90;;;;;;5041795;28;20059;-60
2023/05/28 00:42:07;;;;;;;16.90;6.35;;;11.90;99.90;;;;;;5043941;28;20144;-60
2023/05/28 00:44:34;;;;;;;15.73;6.28;;;11.80;99.90;;;;;;5043455;28;20041;-60
2023/05/28 00:47:01;;;;;;;14.52;6.88;;;11.70;99.90;;;;;;5051757;28;20381;-60
2023/05/28 00:49:28;;;;;;;18.15;7.30;;;11.70;99.90;;;;;;5026810;28;20476;-60
2023/05/28 00:51:55;;;;;;;24.30;6.95;;;11.60;99.90;;;;;;5021005;28;20041;-60
2023/05/28 00:54:22;;;;;;;19.58;7.72;;;11.60;99.90;;;;;;5046958;28;20048;-59
2023/05/28 00:56:51;;;;;;;15.40;6.32;;;11.60;99.90;;;;;;5035484;28;20048;-60
2023/05/28 00:59:18;;;;;;;18.00;6.97;;;11.60;99.90;;;;;;5035555;28;20056;-60
2023/05/28 01:01:44;;;;;;;19.30;7.15;;;11.60;99.90;;;;;;5031344;28;20623;-60
2023/05/28 01:04:11;;;;;;;21.25;7.90;;;11.60;99.90;;;;;;5018900;28;20125;-60
2023/05/28 01:06:39;;;;;;;18.85;7.63;;;11.60;99.90;;;;;;5047003;28;20131;-60
2023/05/28 01:09:06;;;;;;;16.70;6.03;;;11.50;99.90;;;;;;5039598;28;20057;-60
2023/05/28 01:11:34;;;;;;;16.73;6.93;;;11.40;99.90;;;;;;5029101;28;20431;-59
2023/05/28 01:14:01;;;;;;;15.27;7.28;;;11.40;99.90;;;;;;5029333;28;20049;-62
2023/05/28 01:16:28;;;;;;;18.95;6.95;;;11.20;99.90;;;;;;5039748;28;20053;-60
2023/05/28 01:18:55;;;;;;;13.43;6.20;;;11.10;99.90;;;;;;5023346;28;20152;-60
2023/05/28 01:21:23;;;;;;;17.00;5.65;;;11.00;99.90;;;;;;5023931;28;20057;-60
2023/05/28 01:23:51;;;;;;;18.02;6.03;;;11.00;99.90;;;;;;5022452;28;20055;-60
2023/05/28 01:26:18;;;;;;;15.45;6.75;;;11.00;99.90;;;;;;5024495;28;20068;-60
2023/05/28 01:28:48;;;;;;;16.92;7.65;;;11.00;99.90;;;;;;5022248;28;20090;-60
2023/05/28 01:31:16;;;;;;;16.92;5.90;;;11.00;99.90;;;;;;5043715;28;20042;-60
2023/05/28 01:33:43;;;;;;;18.00;6.65;;;10.90;99.90;;;;;;5039543;28;20049;-60
2023/05/28 01:36:11;;;;;;;23.52;10.25;;;10.80;99.90;;;;;;5020760;28;20052;-60
2023/05/28 01:38:38;;;;;;;11.82;6.35;;;10.80;99.90;;;;;;5044626;28;20199;-60
2023/05/28 01:41:06;;;;;;;20.95;7.25;;;10.70;99.90;;;;;;5025528;28;20216;-60
2023/05/28 01:43:33;;;;;;;12.40;5.55;;;10.80;99.90;;;;;;5016919;28;20093;-60
2023/05/28 01:46:00;;;;;;;18.08;6.82;;;10.80;99.90;;;;;;5019603;28;20056;-61
2023/05/28 01:48:27;;;;;;;12.50;5.93;;;10.80;99.90;;;;;;5014736;28;20052;-61
2023/05/28 01:50:54;;;;;;;17.85;6.90;;;10.60;99.90;;;;;;5028308;28;20488;-60
2023/05/28 01:53:20;;;;;;;11.60;5.47;;;10.50;99.90;;;;;;5016299;28;20049;-61
2023/05/28 01:55:47;;;;;;;13.70;5.75;;;10.40;99.90;;;;;;5044190;28;20057;-60
2023/05/28 01:58:14;;;;;;;13.45;6.50;;;10.30;99.90;;;;;;5036016;28;20049;-61
2023/05/28 02:00:49;;;;;;;26.88;6.45;;;10.30;99.90;;;;;;5042005;28;20053;-60
2023/05/28 02:03:16;;;;;;;19.50;6.57;;;10.40;99.90;;;;;;5018763;28;20517;-60
2023/05/28 02:05:43;;;;;;;15.15;6.28;;;10.50;99.90;;;;;;5041441;28;20077;-60
2023/05/28 02:08:10;;;;;;;17.48;7.95;;;10.40;99.90;;;;;;5038499;28;20084;-60
2023/05/28 02:10:36;;;;;;;16.35;6.63;;;10.50;99.90;;;;;;5039729;28;20049;-60
2023/05/28 02:13:03;;;;;;;13.00;6.25;;;10.50;99.90;;;;;;5055170;28;20041;-60
2023/05/28 02:15:30;;;;;;;17.05;6.93;;;10.60;99.90;;;;;;5044073;28;20056;-60
2023/05/28 02:17:57;;;;;;;13.98;6.22;;;10.50;99.90;;;;;;5041432;28;20046;-60
2023/05/28 02:20:24;;;;;;;17.88;6.20;;;10.50;99.90;;;;;;5038513;28;20056;-61
2023/05/28 02:22:51;;;;;;;16.95;5.95;;;10.50;99.90;;;;;;5041036;28;20052;-60
2023/05/28 02:25:18;;;;;;;18.30;6.22;;;10.40;99.90;;;;;;5036797;28;20492;-60
2023/05/28 02:27:44;;;;;;;14.10;6.30;;;10.30;99.90;;;;;;5034142;28;20099;-60
2023/05/28 02:30:13;;;;;;;12.70;6.00;;;10.20;99.90;;;;;;5044613;28;20455;-59
2023/05/28 02:32:40;;;;;;;20.42;8.10;;;10.10;99.90;;;;;;5042887;28;20109;-59
2023/05/28 02:35:07;;;;;;;14.55;6.57;;;10.00;99.90;;;;;;5032207;28;20099;-59
2023/05/28 02:37:34;;;;;;;17.77;6.78;;;10.00;99.90;;;;;;5044853;28;20053;-58
2023/05/28 02:40:03;;;;;;;17.75;6.97;;;10.00;99.90;;;;;;5032138;28;20053;-59
2023/05/28 02:42:30;;;;;;;13.07;7.13;;;10.10;99.90;;;;;;5044179;28;20049;-61
2023/05/28 02:44:56;;;;;;;18.42;7.90;;;10.00;99.90;;;;;;5034091;28;20052;-59
2023/05/28 02:47:23;;;;;;;16.83;7.10;;;10.00;99.90;;;;;;5042518;28;20037;-59
2023/05/28 02:49:50;;;;;;;13.90;6.03;;;9.90;99.90;;;;;;5034892;28;20089;-62
2023/05/28 02:52:17;;;;;;;14.40;7.13;;;9.90;99.90;;;;;;5039919;28;20491;-59
2023/05/28 02:54:44;;;;;;;13.98;6.45;;;9.80;99.90;;;;;;5037499;28;20458;-60
2023/05/28 02:57:11;;;;;;;22.20;9.50;;;9.90;99.90;;;;;;5039052;28;20087;-59
2023/05/28 02:59:38;;;;;;;13.02;6.60;;;9.90;99.90;;;;;;5039742;28;20045;-59
2023/05/28 03:02:05;;;;;;;14.02;5.88;;;9.90;99.90;;;;;;5039665;28;20136;-59
2023/05/28 03:04:32;;;;;;;13.32;6.15;;;9.90;99.90;;;;;;5019995;28;20047;-59
2023/05/28 03:06:59;;;;;;;13.13;4.90;;;9.90;99.90;;;;;;5039751;28;20045;-59
2023/05/28 03:09:28;;;;;;;17.70;7.10;;;9.80;99.90;;;;;;5040107;28;20480;-59
2023/05/28 03:11:55;;;;;;;15.55;6.65;;;9.80;99.90;;;;;;5036568;28;20095;-59
2023/05/28 03:14:21;;;;;;;14.23;5.75;;;9.80;99.90;;;;;;5032215;28;20049;-59
2023/05/28 03:16:48;;;;;;;12.82;6.28;;;9.90;99.90;;;;;;5034284;28;20075;-60
2023/05/28 03:19:15;;;;;;;16.30;5.32;;;9.80;99.90;;;;;;5043424;28;20076;-60
2023/05/28 03:21:42;;;;;;;16.83;7.38;;;9.80;99.90;;;;;;5032005;28;20049;-59
2023/05/28 03:24:09;;;;;;;13.52;6.20;;;9.80;99.90;;;;;;5044496;28;20087;-59
2023/05/28 03:26:37;;;;;;;15.75;5.22;;;9.80;99.90;;;;;;5033274;28;20045;-60
2023/05/28 03:29:03;;;;;;;13.32;5.50;;;9.70;99.90;;;;;;5047285;28;20056;-59
2023/05/28 03:31:30;;;;;;;9.27;5.88;;;9.80;99.90;;;;;;5035248;28;20041;-59
2023/05/28 03:33:57;;;;;;;13.68;5.82;;;9.70;99.90;;;;;;5035107;28;20053;-60
2023/05/28 03:36:26;;;;;;;12.45;5.93;;;9.70;99.90;;;;;;5041315;28;20085;-60
2023/05/28 03:38:53;;;;;;;12.73;4.75;;;9.60;99.90;;;;;;5036430;28;20092;-59
2023/05/28 03:41:21;;;;;;;10.02;4.47;;;9.40;99.90;;;;;;5041140;28;20052;-60
2023/05/28 03:43:48;;;;;;;9.48;5.10;;;9.30;99.90;;;;;;5037283;28;20064;-61
2023/05/28 03:46:15;;;;;;;10.60;5.28;;;9.20;99.90;;;;;;5038838;28;20049;-60
2023/05/28 03:48:41;;;;;;;11.27;5.32;;;9.30;99.90;;;;;;5021229;28;20046;-60
2023/05/28 03:51:09;;;;;;;10.85;5.53;;;9.30;99.90;;;;;;5037026;28;20091;-60
2023/05/28 03:53:36;;;;;;;18.27;5.82;;;9.40;99.90;;;;;;5037878;28;20045;-63
2023/05/28 03:56:03;;;;;;;20.13;5.35;;;9.30;99.90;;;;;;5037060;28;20040;-60
2023/05/28 03:58:30;;;;;;;11.20;5.28;;;9.30;99.90;;;;;;5040407;28;20077;-60
2023/05/28 04:00:57;;;;;;;9.20;4.85;;;9.30;99.90;;;;;;5040606;28;20045;-60
2023/05/28 04:03:24;;;;;;;12.55;5.40;;;9.30;99.90;;;;;;5034065;28;20049;-60
2023/05/28 04:05:51;;;;;;;12.82;4.50;;;9.20;99.90;;;;;;5044061;28;20055;-60
2023/05/28 04:08:19;;;;;;;12.88;5.25;;;9.20;99.90;;;;;;5044809;28;20072;-60
2023/05/28 04:10:46;;;;;;;11.95;5.28;;;9.20;99.90;;;;;;5032496;28;20096;-60
2023/05/28 04:13:13;;;;;;;8.38;5.05;;;9.20;99.90;;;;;;5046122;28;20041;-60
2023/05/28 04:15:40;;;;;;;13.30;5.70;;;9.20;99.90;;;;;;5032306;28;20056;-60
2023/05/28 04:18:07;;;;;;;13.55;5.78;;;9.20;99.90;;;;;;5043746;28;20044;-60
2023/05/28 04:20:35;;;;;;;14.38;6.38;;;9.10;99.90;;;;;;5034219;28;20447;-60
2023/05/28 04:23:03;;;;;;;12.40;5.47;;;9.10;99.90;;;;;;5042144;28;20084;-60
2023/05/28 04:25:30;;;;;;;11.38;5.38;;;9.10;99.90;;;;;;5039859;28;20049;-60
2023/05/28 04:28:00;;;;;;;12.07;5.88;;;8.90;99.90;;;;;;5035345;28;20523;-60
2023/05/28 04:30:27;;;;;;;15.88;6.15;;;9.10;99.90;;;;;;5039045;28;20459;-60
2023/05/28 04:32:54;;;;;;;13.15;5.75;;;9.10;99.90;;;;;;5043439;28;20049;-60
2023/05/28 04:35:21;;;;;;;12.70;5.03;;;9.10;99.90;;;;;;5034946;28;20081;-60
2023/05/28 04:37:50;;;;;;;15.57;6.68;;;9.10;99.90;;;;;;5038960;28;20500;-60
2023/05/28 04:40:17;;;;;;;11.63;6.07;;;9.00;99.90;;;;;;5037027;28;20119;-60
2023/05/28 04:42:44;;;;;;;13.98;6.22;;;9.10;99.90;;;;;;5039373;28;20069;-60
2023/05/28 04:45:11;;;;;;;17.92;6.15;;;9.20;99.90;;;;;;5036023;28;20102;-60
2023/05/28 04:47:38;;;;;;;13.27;5.65;;;9.20;99.90;;;;;;5039732;28;20046;-60
2023/05/28 04:50:06;;;;;;;13.65;6.32;;;9.20;99.90;;;;;;5034567;28;20045;-60
2023/05/28 04:52:35;;;;;;;21.25;6.88;;;9.30;99.90;;;;;;5041257;28;20045;-60
2023/05/28 04:55:06;;;;;;;12.90;6.65;;;9.30;99.90;;;;;;5014842;28;20053;-60
2023/05/28 04:57:33;;;;;;;14.00;5.75;;;9.40;99.90;;;;;;5042425;28;20103;-60
2023/05/28 05:00:00;;;;;;;14.25;6.30;;;9.40;99.90;;;;;;5031031;28;20053;-60
2023/05/28 05:02:28;;;;;;;12.73;5.90;;;9.40;99.90;;;;;;5025807;28;20041;-61
2023/05/28 05:04:56;;;;;;;13.40;6.22;;;9.40;99.90;;;;;;5029608;28;20111;-60
2023/05/28 05:07:23;;;;;;;18.67;9.25;;;9.50;99.90;;;;;;5034034;28;20052;-60
2023/05/28 05:09:50;;;;;;;16.13;6.80;;;9.50;99.90;;;;;;5046584;28;20057;-60
2023/05/28 05:12:17;;;;;;;20.38;6.53;;;9.50;99.90;;;;;;5045298;28;20072;-60
2023/05/28 05:14:44;;;;;;;11.60;5.97;;;9.60;99.90;;;;;;5019178;28;20103;-60
2023/05/28 05:17:11;;;;;;;10.50;6.60;;;9.60;99.90;;;;;;5043235;28;20064;-60
2023/05/28 05:19:38;;;;;;;13.10;6.35;;;9.50;99.90;;;;;;5020877;28;20530;-60
2023/05/28 05:22:05;;;;;;;14.07;6.72;;;9.60;99.90;;;;;;5041745;28;20072;-60
2023/05/28 05:24:31;;;;;;;13.65;6.13;;;9.60;99.90;;;;;;5041099;28;20068;-60
2023/05/28 05:26:58;;;;;;;23.52;7.13;;;9.60;99.90;;;;;;5039885;28;20448;-60
2023/05/28 05:29:25;;;;;;;15.95;6.78;;;9.70;99.90;;;;;;5042539;28;20049;-61
2023/05/28 05:31:52;;;;;;;19.58;8.25;;;9.70;99.90;;;;;;5035431;28;20129;-60
2023/05/28 05:34:19;;;;;;;18.60;6.95;;;9.80;99.90;;;;;;5042129;28;20500;-60
2023/05/28 05:36:46;;;;;;;17.95;7.05;;;9.80;99.90;;;;;;5038588;28;20049;-60
2023/05/28 05:39:14;;;;;;;22.58;7.90;;;9.80;99.90;;;;;;5043192;28;20087;-59
2023/05/28 05:41:41;;;;;;;22.67;7.50;;;9.90;99.90;;;;;;5036405;28;20102;-60
2023/05/28 05:44:08;;;;;;;15.07;7.10;;;10.00;99.90;;;;;;5045440;28;20111;-60
2023/05/28 05:46:35;;;;;;;16.38;7.25;;;10.00;99.90;;;;;;5034002;28;20096;-60
2023/05/28 05:49:01;;;;;;;14.93;6.47;;;10.10;99.90;;;;;;5046188;28;20499;-61
2023/05/28 05:51:28;;;;;;;23.48;9.73;;;10.20;99.90;;;;;;5032842;28;20049;-60
2023/05/28 05:53:55;;;;;;;19.73;8.40;;;10.20;99.90;;;;;;5034582;28;20550;-60
2023/05/28 05:56:22;;;;;;;20.92;6.93;;;10.30;99.90;;;;;;5045245;28;20049;-60
2023/05/28 05:58:49;;;;;;;19.90;8.32;;;10.30;99.90;;;;;;5043842;28;20087;-60
2023/05/28 06:01:16;;;;;;;20.58;8.00;;;10.40;99.90;;;;;;5018287;28;20049;-60
2023/05/28 06:03:43;;;;;;;21.00;8.40;;;10.40;99.90;;;;;;5024385;28;20453;-60
2023/05/28 06:06:10;;;;;;;23.83;8.50;;;10.50;99.90;;;;;;5020319;28;20081;-59
2023/05/28 06:08:37;;;;;;;17.40;9.02;;;10.60;99.90;;;;;;5041023;28;20132;-60
2023/05/28 06:11:03;;;;;;;20.40;10.23;;;10.70;99.90;;;;;;5042905;28;20061;-59
2023/05/28 06:13:31;;;;;;;18.00;9.23;;;10.80;99.90;;;;;;5041179;28;20040;-60
2023/05/28 06:15:59;;;;;;;25.48;10.05;;;10.90;99.90;;;;;;5041332;28;20165;-60
2023/05/28 06:18:26;;;;;;;18.17;8.02;;;11.00;99.90;;;;;;5038621;28;20385;-60
2023/05/28 06:20:53;;;;;;;21.90;7.50;;;11.10;99.90;;;;;;5041053;28;20397;-60
2023/05/28 06:23:20;;;;;;;20.52;8.95;;;11.30;99.90;;;;;;5037917;28;20040;-61
2023/05/28 06:25:47;;;;;;;21.45;8.43;;;11.40;99.90;;;;;;5042270;28;20041;-60
2023/05/28 06:28:15;;;;;;;19.15;7.93;;;11.50;99.90;;;;;;5034688;28;20044;-60
2023/05/28 06:30:41;;;;;;;21.98;8.05;;;11.60;99.90;;;;;;5044198;28;20057;-60
2023/05/28 06:33:09;;;;;;;22.15;8.20;;;11.70;99.90;;;;;;5043879;28;20061;-60
2023/05/28 06:35:36;;;;;;;24.00;8.40;;;11.80;99.90;;;;;;5033617;28;20057;-60
2023/05/28 06:38:03;;;;;;;21.73;8.55;;;11.90;99.90;;;;;;5047247;28;20076;-60
2023/05/28 06:40:29;;;;;;;15.07;7.28;;;12.00;99.90;;;;;;5033873;28;20045;-60
2023/05/28 06:42:58;;;;;;;21.70;8.27;;;12.10;99.90;;;;;;5045319;28;20756;-60
2023/05/28 06:45:25;;;;;;;18.75;7.90;;;12.20;99.90;;;;;;5038957;28;20454;-60
2023/05/28 06:47:53;;;;;;;17.17;8.27;;;12.30;99.90;;;;;;5035059;28;20050;-60
2023/05/28 06:50:20;;;;;;;17.42;8.35;;;12.30;99.90;;;;;;5040898;28;20097;-60
2023/05/28 06:52:47;;;;;;;18.88;8.55;;;12.30;99.90;;;;;;5036613;28;20088;-59
2023/05/28 06:55:14;;;;;;;17.58;7.78;;;12.40;99.90;;;;;;5039839;28;20477;-60
2023/05/28 06:57:41;;;;;;;20.58;7.47;;;12.50;99.90;;;;;;5039638;28;20102;-61
2023/05/28 07:00:13;;;;;;;16.83;8.68;;;12.50;99.90;;;;;;5037746;28;20052;-59
2023/05/28 07:02:40;;;;;;;14.48;7.47;;;12.60;99.90;;;;;;5037715;28;20080;-59
2023/05/28 07:05:07;;;;;;;14.75;6.90;;;12.70;99.90;;;;;;5021067;28;20431;-59
2023/05/28 07:07:34;;;;;;;19.10;8.32;;;12.70;99.90;;;;;;5037421;28;20124;-59
2023/05/28 07:10:01;;;;;;;19.13;7.03;;;12.80;99.90;;;;;;5040156;28;20111;-60
2023/05/28 07:12:31;;;;;;;19.73;8.52;;;12.90;99.90;;;;;;5040167;28;20488;-63
2023/05/28 07:14:58;;;;;;;19.00;8.50;;;13.00;99.90;;;;;;5035768;28;20057;-59
2023/05/28 07:17:24;;;;;;;18.63;10.10;;;13.10;99.90;;;;;;5023151;28;20221;-60
2023/05/28 07:19:51;;;;;;;18.23;6.07;;;13.10;99.90;;;;;;5032699;28;20056;-60
2023/05/28 07:22:18;;;;;;;16.55;6.97;;;13.20;99.90;;;;;;5043627;28;20053;-59
2023/05/28 07:24:45;;;;;;;14.07;6.32;;;13.30;99.90;;;;;;5030752;28;20504;-60
2023/05/28 07:27:14;;;;;;;18.45;6.68;;;13.50;99.90;;;;;;5039493;28;20041;-61
2023/05/28 07:29:41;;;;;;;14.90;5.28;;;13.50;99.90;;;;;;5045383;28;20076;-61
2023/05/28 07:32:08;;;;;;;13.70;4.78;;;13.60;99.90;;;;;;5038204;28;20098;-60
2023/05/28 07:34:35;;;;;;;15.70;3.45;;;13.70;99.90;;;;;;5033110;28;20060;-60
2023/05/28 07:37:02;;;;;;;12.45;4.00;;;13.70;99.90;;;;;;5040922;28;20056;-60
2023/05/28 07:39:29;;;;;;;8.63;3.67;;;13.80;99.90;;;;;;5034132;28;20087;-60
2023/05/28 07:41:55;;;;;;;14.20;4.75;;;13.90;99.90;;;;;;5039671;28;20199;-58
2023/05/28 07:44:22;;;;;;;9.23;3.15;;;14.00;99.90;;;;;;5018552;28;20064;-59
2023/05/28 07:46:49;;;;;;;7.82;4.20;;;14.10;99.90;;;;;;5036387;28;20544;-59
2023/05/28 07:49:16;;;;;;;9.82;4.05;;;14.10;99.90;;;;;;5036536;28;20268;-58
2023/05/28 07:51:43;;;;;;;5.47;2.63;;;14.20;99.90;;;;;;5016187;28;20042;-59
2023/05/28 07:54:11;;;;;;;7.78;3.60;;;14.30;99.90;;;;;;5038442;28;20072;-59
2023/05/28 07:56:38;;;;;;;7.32;3.03;;;14.30;99.90;;;;;;5040145;28;20045;-59
2023/05/28 07:59:04;;;;;;;5.15;2.50;;;14.30;99.90;;;;;;5020536;28;20476;-60
2023/05/28 08:01:32;;;;;;;5.22;2.28;;;14.40;99.90;;;;;;5034686;28;20049;-59
2023/05/28 08:03:58;;;;;;;7.65;2.33;;;14.40;99.90;;;;;;5040240;28;20038;-59
2023/05/28 08:06:26;;;;;;;4.45;2.38;;;14.40;99.90;;;;;;5032475;28;20148;-60
2023/05/28 08:08:52;;;;;;;5.05;2.40;;;14.40;99.90;;;;;;5042272;28;20041;-59
2023/05/28 08:11:19;;;;;;;6.97;2.33;;;14.50;99.90;;;;;;5030081;28;20049;-61
2023/05/28 08:13:46;;;;;;;6.80;2.50;;;14.60;99.90;;;;;;5043310;28;20385;-61
2023/05/28 08:16:13;;;;;;;9.80;2.90;;;14.70;99.90;;;;;;5030400;28;20144;-58
2023/05/28 08:18:40;;;;;;;8.38;2.45;;;14.80;99.90;;;;;;5024764;28;20103;-60
2023/05/28 08:21:07;;;;;;;4.60;2.10;;;14.80;99.90;;;;;;5032064;28;20080;-61
2023/05/28 08:23:34;;;;;;;6.00;2.50;;;14.90;99.90;;;;;;5040443;28;20121;-59
2023/05/28 08:26:02;;;;;;;5.00;2.65;;;15.00;99.90;;;;;;5033934;28;20100;-60
2023/05/28 08:28:29;;;;;;;5.72;2.90;;;15.00;99.90;;;;;;5039059;28;20045;-59
2023/05/28 08:30:56;;;;;;;10.02;3.00;;;15.10;99.90;;;;;;5018163;28;20383;-60
2023/05/28 08:33:23;;;;;;;10.00;5.80;;;15.20;99.90;;;;;;5019286;28;20056;-60
2023/05/28 08:35:50;;;;;;;10.15;4.05;;;15.30;99.90;;;;;;5036945;28;20087;-59
2023/05/28 08:38:17;;;;;;;7.00;2.33;;;15.40;99.90;;;;;;5037805;28;20065;-59
2023/05/28 08:40:54;;;;;;;4.53;2.53;;;15.50;99.00;;;;;;5036912;28;20052;-59
2023/05/28 08:43:24;;;;;;;6.97;2.72;;;15.50;97.30;;;;;;5025055;28;20529;-59
2023/05/28 08:45:52;;;;;;;7.40;3.20;;;15.60;97.60;;;;;;5042038;28;20135;-59
2023/05/28 08:48:19;;;;;;;10.10;2.53;;;15.70;97.20;;;;;;5044005;28;20077;-60
2023/05/28 08:50:48;;;;;;;5.88;2.30;;;15.60;96.90;;;;;;5024736;28;20147;-59
2023/05/28 08:53:17;;;;;;;4.45;1.77;;;15.70;96.90;;;;;;5026155;28;20099;-59
2023/05/28 08:55:45;;;;;;;5.80;1.92;;;15.80;95.90;;;;;;5037493;28;20377;-59
2023/05/28 08:58:12;;;;;;;5.38;1.80;;;15.90;95.20;;;;;;5044235;28;20049;-59
2023/05/28 09:00:41;;;;;;;7.13;2.35;;;15.90;93.80;;;;;;5035526;28;20053;-60
2023/05/28 09:03:08;;;;;;;2.78;1.50;;;16.00;93.80;;;;;;5029494;28;20049;-60
2023/05/28 09:05:36;;;;;;;4.93;1.60;;;16.20;92.70;;;;;;5033754;28;20049;-60
2023/05/28 09:08:08;;;;;;;4.40;2.00;;;16.30;92.20;;;;;;5048187;28;20052;-61
2023/05/28 09:10:35;;;;;;;3.63;1.77;;;16.30;91.20;;;;;;5016080;28;20073;-60
2023/05/28 09:13:02;;;;;;;3.13;1.38;;;16.40;89.50;;;;;;5044567;28;20049;-60
2023/05/28 09:15:34;;;;;;;3.63;1.65;;;16.50;90.50;;;;;;5024387;28;20045;-59
2023/05/28 09:18:01;;;;;;;6.13;1.90;;;16.60;89.90;;;;;;5034452;28;20045;-59
2023/05/28 09:20:28;;;;;;;1.92;1.40;;;16.70;85.80;;;;;;5039098;28;20103;-59
2023/05/28 09:23:02;;;;;;;2.17;1.50;;;16.80;83.90;;;;;;5044367;28;20055;-60
2023/05/28 09:25:32;;;;;;;2.95;1.88;;;16.80;80.20;;;;;;5037461;28;20615;-59
2023/05/28 09:28:00;;;;;;;1.73;1.33;;;16.90;83.80;;;;;;5017343;28;20045;-59
2023/05/28 09:30:29;;;;;;;3.08;1.92;;;17.00;83.90;;;;;;5024819;28;20049;-60
2023/05/28 09:33:00;;;;;;;4.00;1.77;;;17.10;81.70;;;;;;5044997;28;20140;-60
2023/05/28 09:35:27;;;;;;;3.45;2.20;;;17.30;82.10;;;;;;5039038;28;20148;-60
2023/05/28 09:38:04;;;;;;;3.70;1.83;;;17.30;78.50;;;;;;4998867;28;20136;-60
2023/05/28 09:40:31;;;;;;;6.90;3.45;;;17.50;75.90;;;;;;4999957;28;20069;-59
2023/05/28 09:42:58;;;;;;;3.20;2.03;;;17.60;76.70;;;;;;4998445;28;20448;-60
2023/05/28 09:45:27;;;;;;;5.57;2.45;;;17.60;78.80;;;;;;5000245;28;20050;-61
2023/05/28 09:47:54;;;;;;;4.18;2.22;;;17.70;75.80;;;;;;4997468;28;20493;-60
2023/05/28 09:50:21;;;;;;;6.80;2.97;;;17.80;76.10;;;;;;4998395;28;20038;-60
2023/05/28 09:52:48;;;;;;;3.33;2.08;;;17.90;75.60;;;;;;4997786;28;20124;-60
2023/05/28 09:55:17;;;;;;;6.97;3.10;;;18.00;73.90;;;;;;4999755;28;20089;-59
2023/05/28 09:58:02;;;;;;;11.07;3.95;;;18.00;70.30;;;;;;4997636;28;20513;-59
2023/05/28 10:00:34;;;;;;;4.22;2.78;;;18.20;70.40;;;;;;4984337;28;20495;-60
2023/05/28 10:03:10;;;;;;;4.82;2.80;;;18.40;69.80;;;;;;5004487;28;20100;-60
2023/05/28 10:05:38;;;;;;;7.85;2.80;;;18.80;71.20;;;;;;5001992;28;20057;-61
2023/05/28 10:08:05;;;;;;;4.25;2.88;;;19.20;72.50;;;;;;5000009;28;20046;-60
2023/05/28 10:10:32;;;;;;;5.22;2.90;;;19.40;71.60;;;;;;4993307;28;20050;-62
2023/05/28 10:12:59;;;;;;;4.88;2.92;;;19.70;71.80;;;;;;4991832;28;20200;-61
2023/05/28 10:15:26;;;;;;;6.75;3.50;;;20.00;72.10;;;;;;5005660;28;20079;-60
2023/05/28 10:17:53;;;;;;;6.15;3.22;;;20.40;71.50;;;;;;4994666;28;20042;-63
2023/05/28 10:20:20;;;;;;;6.03;3.60;;;20.60;69.20;;;;;;4991160;28;20556;-60
2023/05/28 10:22:47;;;;;;;5.72;3.70;;;20.70;70.20;;;;;;4994422;28;20201;-60
2023/05/28 10:25:13;;;;;;;7.55;3.63;;;21.00;69.90;;;;;;5003588;28;20053;-60
2023/05/28 10:27:44;;;;;;;6.25;4.35;;;21.10;68.90;;;;;;4992659;28;20061;-60
2023/05/28 10:30:15;;;;;;;8.02;3.97;;;21.20;64.30;;;;;;5007874;28;20049;-60
2023/05/28 10:32:42;;;;;;;9.93;4.85;;;21.40;66.40;;;;;;5003032;28;20050;-60
2023/05/28 10:35:12;;;;;;;11.18;5.13;;;21.60;64.20;;;;;;5008600;28;20128;-60
2023/05/28 10:37:39;;;;;;;7.70;5.25;;;21.70;64.60;;;;;;5028064;28;20064;-61
2023/05/28 10:40:11;;;;;;;10.93;5.38;;;21.90;63.90;;;;;;5048282;28;20127;-61
2023/05/28 10:42:41;;;;;;;8.43;6.57;;;22.00;63.60;;;;;;5021755;28;20072;-61
2023/05/28 10:45:12;;;;;;;13.20;7.20;;;22.00;58.30;;;;;;5037968;28;20508;-61
2023/05/28 10:47:41;;;;;;;11.80;7.03;;;21.90;62.40;;;;;;5038163;28;20059;-61
2023/05/28 10:50:08;;;;;;;10.95;5.90;;;21.50;58.90;;;;;;5039335;28;20053;-60
2023/05/28 10:52:43;;;;;;;10.05;6.85;;;21.20;61.70;;;;;;5037386;28;20063;-60
2023/05/28 10:55:11;;;;;;;9.02;6.00;;;20.90;61.30;;;;;;5036833;28;20049;-60
2023/05/28 10:57:46;;;;;;;9.90;6.53;;;20.90;62.10;;;;;;5039645;28;20072;-60
2023/05/28 11:00:21;;;;;;;11.07;7.05;;;20.80;60.80;;;;;;5038538;28;20042;-60
2023/05/28 11:02:50;;;;;;;9.18;6.28;;;20.80;62.40;;;;;;5039145;28;20488;-61
2023/05/28 11:05:22;;;;;;;10.23;6.47;;;20.70;62.30;;;;;;5038096;28;20638;-59
2023/05/28 11:07:49;;;;;;;10.13;6.57;;;20.70;63.70;;;;;;5025863;28;20053;-60
2023/05/28 11:10:16;;;;;;;10.45;7.15;;;20.70;63.40;;;;;;5017547;28;20045;-60
2023/05/28 11:12:44;;;;;;;12.13;7.38;;;20.70;62.30;;;;;;5041140;28;20049;-60
2023/05/28 11:15:12;;;;;;;10.38;7.50;;;20.60;63.30;;;;;;5041886;28;20045;-60
2023/05/28 11:17:40;;;;;;;15.10;9.07;;;20.50;63.50;;;;;;5033774;28;20045;-60
2023/05/28 11:20:21;;;;;;;12.88;8.73;;;20.50;62.40;;;;;;5021519;28;20411;-59
2023/05/28 11:22:48;;;;;;;14.97;8.17;;;20.50;61.50;;;;;;4685765;28;10000275;-62
2023/05/28 11:25:15;;;;;;;11.77;8.38;;;20.50;61.70;;;;;;5040902;28;20288;-60
2023/05/28 11:27:44;;;;;;;14.52;8.40;;;20.60;61.70;;;;;;5034437;28;20067;-60
2023/05/28 11:30:18;;;;;;;12.60;8.07;;;20.60;60.60;;;;;;5029362;28;20081;-60
2023/05/28 11:32:47;;;;;;;13.18;9.30;;;20.60;61.40;;;;;;5012943;28;20171;-60
2023/05/28 11:35:15;;;;;;;12.75;8.90;;;20.70;63.80;;;;;;5039998;28;20037;-60
2023/05/28 11:37:43;;;;;;;14.70;9.10;;;20.70;61.60;;;;;;5024188;28;20065;-59
2023/05/28 11:40:12;;;;;;;15.38;9.13;;;20.60;61.20;;;;;;5011874;28;20547;-60
2023/05/28 11:42:40;;;;;;;12.07;8.63;;;20.50;60.80;;;;;;5038344;28;20103;-60
2023/05/28 11:45:08;;;;;;;15.02;8.50;;;20.40;62.10;;;;;;5036041;28;20079;-60
2023/05/28 11:47:35;;;;;;;13.52;8.68;;;20.50;60.30;;;;;;5031871;28;20057;-60
2023/05/28 11:50:06;;;;;;;15.60;8.40;;;20.60;61.50;;;;;;5033464;28;20056;-60
2023/05/28 11:52:33;;;;;;;14.60;8.40;;;20.60;59.80;;;;;;5035849;28;20071;-60
2023/05/28 11:55:01;;;;;;;13.27;7.82;;;20.70;59.10;;;;;;5034862;28;20099;-60
2023/05/28 11:57:33;;;;;;;11.55;7.38;;;20.70;60.20;;;;;;5033382;28;20048;-60
2023/05/28 12:00:18;;;;;;;14.80;7.50;;;20.80;60.30;;;;;;5017183;28;20045;-60
2023/05/28 12:02:46;;;;;;;10.88;7.90;;;20.90;59.70;;;;;;5034330;28;20088;-60
2023/05/28 12:05:14;;;;;;;15.60;7.70;;;21.00;59.50;;;;;;5017165;28;20065;-59
2023/05/28 12:07:51;;;;;;;15.27;8.07;;;21.10;58.40;;;;;;5033340;28;20065;-60
2023/05/28 12:10:20;;;;;;;15.57;7.18;;;21.10;56.50;;;;;;5032397;28;20037;-62
2023/05/28 12:12:52;;;;;;;13.15;8.00;;;21.00;57.80;;;;;;5037842;28;20052;-60
2023/05/28 12:15:22;;;;;;;12.07;7.47;;;21.00;57.90;;;;;;5033170;28;20447;-60
2023/05/28 12:17:56;;;;;;;11.63;7.47;;;21.20;59.40;;;;;;5050103;28;20123;-59
2023/05/28 12:20:23;;;;;;;13.07;7.90;;;21.30;57.80;;;;;;5037861;28;20106;-61
2023/05/28 12:23:00;;;;;;;12.23;7.70;;;21.40;57.70;;;;;;5038217;28;20049;-61
2023/05/28 12:25:26;;;;;;;14.02;8.18;;;21.40;58.30;;;;;;5038600;28;20048;-61
2023/05/28 12:27:53;;;;;;;15.20;7.72;;;21.40;60.90;;;;;;5019422;28;20126;-60
2023/05/28 12:30:20;;;;;;;13.50;7.80;;;21.60;60.10;;;;;;4693121;28;9999999;-60
2023/05/28 12:32:47;;;;;;;11.63;7.97;;;21.50;60.50;;;;;;5041940;28;20128;-60
2023/05/28 12:35:14;;;;;;;13.25;8.18;;;21.60;60.60;;;;;;5046586;28;20076;-61
2023/05/28 12:37:41;;;;;;;16.27;7.95;;;21.70;61.10;;;;;;5036257;28;20053;-60
2023/05/28 12:40:08;;;;;;;10.98;7.03;;;21.70;60.30;;;;;;5020897;28;20053;-60
2023/05/28 12:42:37;;;;;;;13.88;8.48;;;21.80;59.00;;;;;;5038663;28;20049;-59